Archival Weather

Wadi Al Dawasir

Wadi Al Dawasir, Saudi Arabia (OEWD)

Report from: Thursday, February 22, 2024 1:00 PM +03
Current time: Wednesday, April 24, 2024 9:05 PM +03

Current weather – Weather history – Daily summaries
Weather forecast

Temperature25.0°C (77.0°F)
Dew point-3.0°C (26.6°F)
Winds 14 kts (7.2 m/s, 16.1 mph) East-Southeast (120°)
Clouds Sky clear
Altimeter30.06 in.Hg (1018 mB)
Relative humidity16 %
Density altitude1,081 ft. (329 m)
Remarks Ceiling and visibility OK
Flight conditions Visual Meteorological Conditions
Raw dataOEWD 221000Z 12014KT CAVOK 25/M03 Q1018
An error has occurred. This application may no longer respond until reloaded. Reload 🗙